»·PEaware :: N1XC KDLO-KEMT

N1XC :: KDLO-KEMT

FLIGHT INFORMATION

Flight Status: Arrived
Operator: Privately registered:
United States
More flights under this callsign
Pilot: Adam S. (8156)
Aircraft: CESSNA T210 TURBO CENTURION
(T210)
More flights by this aircraft type
Origin: KDLO Delano Mun
United States
Destination: KEMT El Monte
United States
More flights between these airports :: More routes between these airports
Route: DIRECT
File this flight plan on PilotEdge
Remarks:
Altitude:
(Current/Filed)
9,500ft
Speed:
(Current/Filed)
160kts
Departed: 02-Sep-17 01:37 AM
Arrived: 02-Sep-17 02:28 AM
Distance/Time
Traveled:
116nm/0:51
Distance/Time
To Go:
Arrived

Flight Plot

Page will automatically refresh every two minutes.


Map Options




Map Legend


Flown Route
Filed Route
Departure Airport
Arrival Airport
Navaid (VOR, NDB)
Fix

Horizontal Profiles

Position Reports

Time Latitude Longitude Heading Altitude Ground
Speed
02-Sep-17 01:40 35.751642 -119.240116 0 316ft 9kts
02-Sep-17 01:41 35.747861 -119.237551 157 357ft 76kts
02-Sep-17 01:42 35.725897 -119.223089 149 1750ft 91kts
02-Sep-17 01:43 35.706380 -119.208672 151 3220ft 75kts
02-Sep-17 01:44 35.688897 -119.196052 145 4304ft 73kts
02-Sep-17 01:45 35.670301 -119.182360 141 5323ft 82kts
02-Sep-17 01:46 35.650882 -119.167853 141 6388ft 82kts
02-Sep-17 01:47 35.631403 -119.153430 141 7469ft 80kts
02-Sep-17 01:48 35.612255 -119.139178 140 8490ft 83kts
02-Sep-17 01:49 35.592714 -119.124715 140 9515ft 83kts
02-Sep-17 01:50 35.562169 -119.102056 145 9514ft 161kts
02-Sep-17 01:51 35.521311 -119.072366 145 9506ft 176kts
02-Sep-17 01:52 35.478998 -119.041284 145 9505ft 179kts
02-Sep-17 01:53 35.436393 -119.009918 145 9505ft 179kts
02-Sep-17 01:54 35.393866 -118.978631 145 9505ft 179kts
02-Sep-17 01:55 35.351865 -118.947763 145 9505ft 179kts
02-Sep-17 01:56 35.310126 -118.917127 145 9505ft 179kts
02-Sep-17 01:57 35.267504 -118.885877 145 9505ft 179kts
02-Sep-17 01:58 35.225665 -118.855244 145 9505ft 179kts
02-Sep-17 01:59 35.184382 -118.825067 144 9541ft 176kts
02-Sep-17 02:00 35.142843 -118.794718 145 9706ft 173kts
02-Sep-17 02:01 35.101622 -118.764623 145 9775ft 175kts
02-Sep-17 02:02 35.059575 -118.733979 145 9775ft 176kts
02-Sep-17 02:03 35.017377 -118.703273 145 9775ft 177kts
02-Sep-17 02:04 34.975370 -118.672412 147 9774ft 178kts
02-Sep-17 02:05 34.932258 -118.641339 149 9775ft 181kts
02-Sep-17 02:06 34.893187 -118.613086 148 9775ft 182kts
02-Sep-17 02:07 34.854844 -118.585329 148 9775ft 182kts
02-Sep-17 02:08 34.811291 -118.554180 144 9776ft 185kts
02-Sep-17 02:09 34.769450 -118.523616 145 9703ft 180kts
02-Sep-17 02:10 34.727574 -118.493383 145 9616ft 179kts
02-Sep-17 02:11 34.685368 -118.462934 145 9611ft 177kts
02-Sep-17 02:12 34.643243 -118.432595 145 9611ft 176kts
02-Sep-17 02:13 34.601906 -118.402863 145 9611ft 176kts
02-Sep-17 02:14 34.560418 -118.373060 144 9637ft 176kts
02-Sep-17 02:15 34.523429 -118.346513 145 9640ft 176kts
02-Sep-17 02:16 34.491721 -118.323822 145 9641ft 177kts
02-Sep-17 02:17 34.442249 -118.288428 145 9641ft 177kts
02-Sep-17 02:18 34.399982 -118.258202 145 9641ft 177kts
02-Sep-17 02:19 34.357178 -118.227633 145 9468ft 179kts
02-Sep-17 02:20 34.314252 -118.197011 145 9060ft 180kts
02-Sep-17 02:21 34.278468 -118.171410 145 8718ft 180kts
02-Sep-17 02:22 34.230295 -118.137048 147 8478ft 176kts
02-Sep-17 02:23 34.193139 -118.110866 147 7528ft 194kts
02-Sep-17 02:24 34.140448 -118.105007 201 5720ft 234kts
02-Sep-17 02:25 34.090115 -118.133666 194 3748ft 176kts
02-Sep-17 02:26 34.050274 -118.130770 148 2144ft 136kts
02-Sep-17 02:27 34.047026 -118.092365 70 1207ft 150kts
02-Sep-17 02:28 34.056463 -118.046921 59 1041ft 146kts
02-Sep-17 02:29 34.080824 -118.016315 7 1395ft 119kts
02-Sep-17 02:30 34.111375 -118.017089 335 1717ft 113kts
02-Sep-17 02:31 34.101404 -118.031211 173 848ft 103kts
02-Sep-17 02:32 34.084338 -118.035797 204 294ft 34kts
02-Sep-17 02:33 34.083146 -118.035629 274 294ft 0kts
02-Sep-17 02:34 34.083146 -118.035629 274 294ft 0kts
02-Sep-17 02:35 34.083146 -118.035629 274 294ft 0kts
02-Sep-17 02:36 34.083146 -118.035629 274 294ft 0kts

Navigation Log

Ident Type
1. KDLO Airport
2. KEMT Airport